Pouso Alto, Brazil
Current Conditions -  °F | °C
As of 8:00 PM on Wednesday 26 Nov 2014 (Local Time) from SBGW Reporting Station
Light Rain Light Rain  
Wind Chill: 73°   Ceiling: 2000
Heat Index: 73°   Visibility: 2.5mi
Dew Point: 70°   Wind: 2mph
Humidity: 88%   Direction: 360°N
Pressure: 29.85"   Gusts: NA
Location:  22.19°S, 44.97°W
Report Text: SBGW 262200Z 36002KT 4000 -RA BR BKN020 FEW025TCU OVC070 23/21 Q1011
Loading
Personal Weather Stations






























Interactive Weather Map New forecast layout! Learn more

10-Day Weather Forecast

Advertisements
Track Severe Weather on mobile